Time;durP1;ratioP1;P1;durP2;ratioP2;P2;SDS_P1;SDS_P2;PMS_P1;PMS_P2;Temp;Humidity;BMP_temperature;BMP_pressure;BME280_temperature;BME280_humidity;BME280_pressure;Samples;Min_cycle;Max_cycle;Signal;HPM_P1;HPM_P2
2021/03/19 00:00:07;;;;;;;6.38;1.92;;;;;;;0.70;70.87;102033.69;10061572;28;20095;-67
2021/03/19 00:05:10;;;;;;;4.75;1.60;;;;;;;0.63;71.25;102034.56;10018307;28;20115;-68
2021/03/19 00:10:06;;;;;;;10.40;1.95;;;;;;;0.63;71.40;102029.16;10062542;28;20059;-67
2021/03/19 00:15:04;;;;;;;4.22;1.70;;;;;;;0.67;70.88;102039.50;10053393;28;20102;-66
2021/03/19 00:20:00;;;;;;;5.20;1.95;;;;;;;0.65;71.11;102046.97;10062636;29;20054;-68
2021/03/19 00:24:56;;;;;;;5.80;1.77;;;;;;;0.43;72.35;102047.31;10057904;28;20039;-67
2021/03/19 00:29:52;;;;;;;6.13;1.75;;;;;;;0.57;71.96;102035.41;10055483;28;20047;-68
2021/03/19 00:34:49;;;;;;;4.18;1.58;;;;;;;0.45;72.57;102053.31;10058349;28;20043;-68
2021/03/19 00:39:45;;;;;;;5.72;1.95;;;;;;;0.54;72.59;102061.97;10059643;28;20047;-67
2021/03/19 00:44:41;;;;;;;7.90;1.95;;;;;;;0.44;73.20;102072.38;10052612;28;20043;-67
2021/03/19 00:49:37;;;;;;;6.82;2.65;;;;;;;0.35;73.42;102063.75;10046746;28;20495;-68
2021/03/19 00:54:33;;;;;;;3.95;1.48;;;;;;;0.46;73.64;102052.25;10049641;28;20052;-67
2021/03/19 00:59:29;;;;;;;4.78;1.85;;;;;;;0.39;74.14;102060.38;10057174;28;20134;-67
2021/03/19 01:04:25;;;;;;;5.47;1.90;;;;;;;0.46;73.71;102060.34;10055922;28;20054;-68
2021/03/19 01:09:22;;;;;;;6.00;2.15;;;;;;;0.41;73.68;102057.47;10053299;28;20137;-67
2021/03/19 01:14:18;;;;;;;9.75;1.77;;;;;;;0.38;73.86;102066.00;10044482;28;20070;-67
2021/03/19 01:19:14;;;;;;;5.55;1.55;;;;;;;0.23;74.50;102065.44;10061818;28;20109;-65
2021/03/19 01:24:11;;;;;;;4.68;1.75;;;;;;;0.29;74.14;102075.38;10050886;28;20094;-68
2021/03/19 01:29:07;;;;;;;6.07;1.48;;;;;;;0.30;74.32;102082.38;10042756;28;20047;-68
2021/03/19 01:34:04;;;;;;;3.70;1.73;;;;;;;0.24;74.51;102084.06;10048633;28;20103;-66
2021/03/19 01:39:01;;;;;;;4.05;1.50;;;;;;;0.15;75.03;102091.56;10057540;28;20043;-67
2021/03/19 01:44:14;;;;;;;4.88;1.48;;;;;;;0.14;75.07;102095.31;10050333;29;20075;-68
2021/03/19 01:49:47;;;;;;;5.53;2.40;;;;;;;0.06;75.32;102076.72;10048780;28;20107;-68
2021/03/19 01:55:21;;;;;;;8.15;2.00;;;;;;;0.04;74.95;102089.53;10049038;28;20057;-68
2021/03/19 02:00:54;;;;;;;6.07;2.00;;;;;;;-0.06;75.44;102097.25;10057590;28;20051;-68
2021/03/19 02:06:28;;;;;;;5.32;1.63;;;;;;;0.05;75.24;102104.66;10044843;28;20058;-69
2021/03/19 02:12:02;;;;;;;4.78;1.90;;;;;;;-0.19;76.34;102099.97;10050703;28;20107;-68
2021/03/19 02:17:35;;;;;;;5.45;2.05;;;;;;;-0.11;76.17;102097.06;10044648;28;20600;-68
2021/03/19 02:23:09;;;;;;;6.32;1.63;;;;;;;-0.13;76.27;102099.16;10054108;28;20043;-66
2021/03/19 02:28:42;;;;;;;7.32;1.88;;;;;;;-0.19;76.39;102105.34;10051069;29;20093;-66
2021/03/19 02:33:47;;;;;;;4.53;2.00;;;;;;;-0.29;76.95;102112.00;10058830;29;20088;-68
2021/03/19 02:38:44;;;;;;;8.48;2.47;;;;;;;-0.26;76.93;102111.56;10052765;28;20078;-68
2021/03/19 02:43:40;;;;;;;5.35;1.77;;;;;;;-0.27;77.04;102112.63;10061959;28;20051;-67
2021/03/19 02:48:36;;;;;;;5.10;2.20;;;;;;;-0.30;77.18;102121.13;10051942;29;20050;-66
2021/03/19 02:53:34;;;;;;;6.75;1.80;;;;;;;-0.31;77.16;102119.44;10060077;28;20110;-68
2021/03/19 02:58:30;;;;;;;4.93;1.85;;;;;;;-0.28;77.32;102129.78;10048182;28;20046;-67
2021/03/19 03:03:26;;;;;;;4.82;2.20;;;;;;;-0.34;77.05;102124.44;10059046;28;20138;-66
2021/03/19 03:08:25;;;;;;;6.32;2.40;;;;;;;-0.28;77.47;102129.78;10048191;28;20058;-66
2021/03/19 03:13:21;;;;;;;4.63;2.10;;;;;;;-0.33;77.31;102143.00;10059563;28;20051;-66
2021/03/19 03:18:19;;;;;;;6.15;2.35;;;;;;;-0.30;77.65;102142.63;10058625;28;20515;-66
2021/03/19 03:23:17;;;;;;;8.15;2.63;;;;;;;-0.31;77.57;102157.06;10050581;29;20067;-63
2021/03/19 03:28:14;;;;;;;6.15;2.42;;;;;;;-0.33;77.96;102152.94;10052513;29;20066;-65
2021/03/19 03:33:11;;;;;;;5.68;2.38;;;;;;;-0.36;78.05;102150.69;10054149;28;20059;-65
2021/03/19 03:38:11;;;;;;;6.47;2.28;;;;;;;-0.34;77.74;102152.13;10058768;28;20043;-65
2021/03/19 03:43:11;;;;;;;5.20;2.47;;;;;;;-0.33;77.98;102148.38;10049209;28;20102;-67
2021/03/19 03:48:08;;;;;;;5.68;2.40;;;;;;;-0.36;78.24;102169.50;10049726;28;20523;-67
2021/03/19 03:53:06;;;;;;;7.32;2.67;;;;;;;-0.25;77.62;102177.75;10045658;28;20154;-67
2021/03/19 03:58:03;;;;;;;5.03;2.17;;;;;;;-0.35;77.92;102173.81;10046432;28;20567;-66
2021/03/19 04:03:01;;;;;;;6.00;2.47;;;;;;;-0.35;78.08;102182.72;10060981;28;20043;-67
2021/03/19 04:07:58;;;;;;;7.65;3.03;;;;;;;-0.41;77.53;102183.56;10052177;29;20043;-67
2021/03/19 04:12:54;;;;;;;9.45;3.25;;;;;;;-0.47;77.93;102189.75;10052238;29;20459;-67
2021/03/19 04:17:58;;;;;;;14.20;3.00;;;;;;;-0.41;78.34;102178.19;10051107;28;20055;-65
2021/03/19 04:22:55;;;;;;;9.57;3.60;;;;;;;-0.38;78.75;102188.50;10053965;28;20043;-67
2021/03/19 04:27:57;;;;;;;7.50;3.35;;;;;;;-0.35;78.41;102185.41;10051565;28;20047;-67
2021/03/19 04:32:54;;;;;;;8.25;4.07;;;;;;;-0.32;78.54;102182.31;10057786;28;20047;-66
2021/03/19 04:37:53;;;;;;;10.65;4.28;;;;;;;-0.25;78.78;102180.44;10049838;28;20056;-67
2021/03/19 04:42:49;;;;;;;9.63;4.00;;;;;;;-0.25;78.59;102177.75;10062629;28;20081;-67
2021/03/19 04:47:45;;;;;;;10.48;4.00;;;;;;;-0.29;78.49;102187.25;10058062;28;20050;-67
2021/03/19 04:52:41;;;;;;;10.45;4.95;;;;;;;-0.27;78.67;102193.25;10049621;29;20563;-66
2021/03/19 04:57:37;;;;;;;12.95;5.55;;;;;;;-0.29;78.93;102214.13;10056301;28;20094;-66
2021/03/19 05:02:40;;;;;;;10.45;4.80;;;;;;;-0.32;78.93;102217.25;10056068;28;20052;-66
2021/03/19 05:07:36;;;;;;;12.53;6.43;;;;;;;-0.36;79.37;102229.44;10059148;29;20163;-67
2021/03/19 05:12:32;;;;;;;10.95;5.00;;;;;;;-0.44;80.59;102232.38;10042116;29;20094;-67
2021/03/19 05:17:30;;;;;;;10.18;4.82;;;;;;;-0.31;80.04;102223.44;10041508;28;20062;-67
2021/03/19 05:22:27;;;;;;;12.45;5.82;;;;;;;-0.35;80.22;102222.19;10045736;28;20113;-68
2021/03/19 05:27:25;;;;;;;16.00;6.22;;;;;;;-0.26;80.22;102229.03;10045951;28;20066;-66
2021/03/19 05:32:22;;;;;;;10.13;5.75;;;;;;;-0.22;80.33;102231.09;10048658;29;20091;-67
2021/03/19 05:37:19;;;;;;;14.52;7.50;;;;;;;-0.14;80.14;102231.91;10054765;28;20166;-66
2021/03/19 05:42:28;;;;;;;14.57;7.22;;;;;;;-0.11;80.87;102226.94;10052270;28;20055;-65
2021/03/19 05:47:26;;;;;;;9.73;5.65;;;;;;;0.04;79.99;102240.16;10050154;28;20055;-66
2021/03/19 05:52:27;;;;;;;11.95;6.25;;;;;;;0.08;79.79;102246.75;10046921;28;20074;-66
2021/03/19 05:57:30;;;;;;;12.40;5.72;;;;;;;0.11;79.86;102253.59;10055404;29;20137;-64
2021/03/19 06:02:31;;;;;;;;;;;;;;;0.00;80.23;102260.44;10054801;29;20055;-67
2021/03/19 06:07:40;;;;;;;12.85;7.45;;;;;;;0.08;80.67;102260.22;10044175;29;19923;-64
2021/03/19 06:12:36;;;;;;;13.57;8.38;;;;;;;0.16;80.95;102260.00;10046503;28;20147;-63
2021/03/19 06:17:44;;;;;;;15.68;8.45;;;;;;;0.16;81.03;102257.31;10049721;28;20047;-66
2021/03/19 06:22:48;;;;;;;13.57;7.45;;;;;;;0.38;81.14;102265.09;10060458;28;20512;-66
2021/03/19 06:27:47;;;;;;;;;;;;;;;0.47;80.87;102261.16;10058289;28;20075;-67
2021/03/19 06:32:53;;;;;;;14.10;7.45;;;;;;;0.45;81.00;102279.38;10066947;28;19981;-66
2021/03/19 06:37:50;;;;;;;16.75;8.85;;;;;;;0.53;80.58;102287.19;10057416;28;20058;-66
2021/03/19 06:42:46;;;;;;;15.25;7.63;;;;;;;0.47;81.03;102287.25;10053859;28;20044;-66
2021/03/19 06:47:46;;;;;;;16.17;8.23;;;;;;;0.50;81.02;102293.00;10048094;28;21945;-67
2021/03/19 06:52:43;;;;;;;16.77;7.82;;;;;;;0.52;80.55;102295.50;10044592;29;20070;-65
2021/03/19 06:57:48;;;;;;;17.00;8.77;;;;;;;0.51;81.00;102308.13;10059958;28;20059;-66
2021/03/19 07:02:56;;;;;;;11.85;7.15;;;;;;;0.67;81.10;102314.06;10060759;28;20451;-66
2021/03/19 07:08:14;;;;;;;14.48;8.27;;;;;;;0.90;80.81;102319.78;10048268;28;20143;-67
2021/03/19 07:13:28;;;;;;;18.25;7.97;;;;;;;1.00;80.91;102330.94;10048862;29;20456;-65
2021/03/19 07:18:44;;;;;;;12.95;7.10;;;;;;;1.24;80.32;102337.44;10052674;28;20516;-69
2021/03/19 07:23:59;;;;;;;15.10;7.28;;;;;;;1.39;79.33;102345.25;10059297;29;20043;-65
2021/03/19 07:29:07;;;;;;;16.33;6.57;;;;;;;1.57;79.57;102340.97;10055351;28;20563;-68
2021/03/19 07:34:25;;;;;;;13.60;6.70;;;;;;;1.77;79.42;102341.66;10050416;29;20055;-67
2021/03/19 07:39:58;;;;;;;12.43;6.60;;;;;;;1.82;79.00;102339.13;10047594;29;20047;-67
2021/03/19 07:45:14;;;;;;;15.57;7.53;;;;;;;1.96;78.83;102344.44;10059055;28;20043;-64
2021/03/19 07:50:41;;;;;;;10.85;6.57;;;;;;;1.94;78.55;102347.34;10046646;29;20047;-67
2021/03/19 07:55:55;;;;;;;15.68;7.90;;;;;;;2.07;79.19;102354.50;10057491;28;20067;-67
2021/03/19 08:01:00;;;;;;;;;;;;;;;2.28;78.76;102348.72;10054882;29;20043;-67
2021/03/19 08:06:00;;;;;;;;;;;;;;;2.43;78.21;102372.66;10045680;28;19939;-67
2021/03/19 08:11:20;;;;;;;12.68;6.57;;;;;;;2.60;78.28;102372.91;10056976;28;20342;-68
2021/03/19 08:16:27;;;;;;;16.50;6.07;;;;;;;2.92;78.10;102380.84;10056556;28;20054;-67
2021/03/19 08:21:42;;;;;;;12.45;5.95;;;;;;;3.18;76.79;102393.25;10060843;28;20122;-66
2021/03/19 08:26:41;;;;;;;13.00;5.70;;;;;;;3.45;76.85;102390.19;10047274;28;20050;-64
2021/03/19 08:31:45;;;;;;;8.25;3.30;;;;;;;3.64;75.52;102404.47;10055780;28;20476;-68
2021/03/19 08:36:54;;;;;;;10.25;4.70;;;;;;;3.82;74.22;102407.13;10054970;28;20044;-66
2021/03/19 08:41:56;;;;;;;8.15;3.78;;;;;;;3.74;73.45;102411.00;10052221;29;20046;-67
2021/03/19 08:46:57;;;;;;;8.13;3.42;;;;;;;3.74;71.66;102421.00;10052952;28;20050;-68
2021/03/19 08:51:55;;;;;;;8.68;3.75;;;;;;;4.00;72.45;102420.59;10045060;28;20137;-66
2021/03/19 08:57:04;;;;;;;8.77;3.38;;;;;;;4.21;71.19;102432.75;10047517;28;20476;-67
2021/03/19 09:02:22;;;;;;;8.57;3.47;;;;;;;4.34;70.34;102431.72;10053213;28;20064;-69
2021/03/19 09:07:24;;;;;;;6.95;2.90;;;;;;;4.39;69.73;102439.97;10049156;28;20131;-66
2021/03/19 09:12:26;;;;;;;4.13;1.58;;;;;;;4.62;67.38;102443.75;10040420;28;20126;-67
2021/03/19 09:17:49;;;;;;;4.60;1.80;;;;;;;5.07;66.63;102440.41;10045584;28;20051;-68
2021/03/19 09:22:47;;;;;;;5.55;1.77;;;;;;;5.28;65.69;102431.63;10059729;28;20070;-67
2021/03/19 09:27:47;;;;;;;11.20;1.55;;;;;;;5.57;64.07;102445.22;10043213;28;20106;-67
2021/03/19 09:32:46;;;;;;;4.22;1.25;;;;;;;5.69;62.78;102437.84;10063475;29;20163;-68
2021/03/19 09:37:49;;;;;;;4.18;0.93;;;;;;;5.67;61.48;102444.59;10056038;28;20511;-68
2021/03/19 09:42:50;;;;;;;3.30;0.90;;;;;;;6.00;60.85;102451.19;10055250;28;20075;-67
2021/03/19 09:47:50;;;;;;;2.20;0.80;;;;;;;6.06;61.22;102459.19;10064258;28;20099;-67
2021/03/19 09:53:04;;;;;;;5.82;0.80;;;;;;;6.46;61.03;102458.22;10066363;28;20454;-68
2021/03/19 09:58:09;;;;;;;4.70;1.13;;;;;;;6.71;58.64;102456.97;10051171;29;20118;-67
2021/03/19 10:03:11;;;;;;;5.13;0.60;;;;;;;6.64;58.07;102459.06;10061937;28;20043;-67
2021/03/19 10:08:09;;;;;;;2.95;0.85;;;;;;;6.64;56.95;102467.22;10047980;28;20094;-65
2021/03/19 10:13:20;;;;;;;3.13;0.35;;;;;;;7.12;55.98;102465.69;10049958;29;20460;-66
2021/03/19 10:18:29;;;;;;;2.22;0.50;;;;;;;7.30;55.80;102468.13;10045421;28;20075;-67
2021/03/19 10:23:31;;;;;;;4.07;0.73;;;;;;;7.33;55.89;102475.78;10048192;28;20107;-65
2021/03/19 10:28:27;;;;;;;4.80;1.13;;;;;;;7.53;55.79;102479.81;10043515;29;20052;-68
2021/03/19 10:33:34;;;;;;;4.80;1.20;;;;;;;7.89;55.51;102463.88;10053676;28;20078;-66
2021/03/19 10:38:40;;;;;;;4.32;0.80;;;;;;;7.52;54.47;102470.00;10057656;28;20054;-68
2021/03/19 10:43:50;;;;;;;3.05;0.80;;;;;;;7.08;55.37;102475.47;10050554;28;20109;-67
2021/03/19 10:49:01;;;;;;;3.53;1.27;;;;;;;6.72;56.95;102488.53;10057903;29;20043;-66
2021/03/19 10:54:33;;;;;;;5.47;1.00;;;;;;;6.56;57.45;102481.19;10067808;28;20047;-67
2021/03/19 10:59:34;;;;;;;7.03;0.52;;;;;;;6.29;58.60;102479.16;10056314;29;20062;-66
2021/03/19 11:04:36;;;;;;;5.95;0.70;;;;;;;6.21;59.05;102493.94;10054701;29;20062;-67
2021/03/19 11:09:33;;;;;;;2.53;0.75;;;;;;;6.24;57.71;102498.06;10040104;28;20149;-64
2021/03/19 11:14:30;;;;;;;1.85;0.70;;;;;;;6.82;58.29;102496.81;10063621;28;20467;-67
2021/03/19 11:19:28;;;;;;;3.05;0.85;;;;;;;6.79;57.31;102494.59;10043888;28;20114;-67
2021/03/19 11:24:31;;;;;;;6.93;0.95;;;;;;;6.87;57.07;102502.34;10056423;28;20400;-68
2021/03/19 11:29:35;;;;;;;4.40;0.80;;;;;;;7.12;56.08;102493.72;10053977;28;20043;-68
2021/03/19 11:34:52;;;;;;;4.55;0.77;;;;;;;6.87;53.97;102505.06;10049989;28;20047;-67
2021/03/19 11:39:55;;;;;;;5.00;1.20;;;;;;;6.74;56.98;102514.38;10046608;29;20071;-68
2021/03/19 11:44:55;;;;;;;5.10;1.10;;;;;;;6.28;55.68;102526.38;10040249;29;20054;-67
2021/03/19 11:50:07;;;;;;;5.18;1.17;;;;;;;6.55;54.46;102539.34;10048650;28;20051;-67
2021/03/19 11:55:04;;;;;;;4.95;1.10;;;;;;;6.98;54.41;102529.69;10050973;28;20122;-67
2021/03/19 12:00:00;;;;;;;4.05;0.90;;;;;;;7.08;55.25;102538.03;10060949;29;20051;-68
2021/03/19 12:04:56;;;;;;;1.50;0.50;;;;;;;7.08;56.56;102546.19;10036516;28;20432;-67
2021/03/19 12:09:52;;;;;;;7.97;2.30;;;;;;;7.54;54.03;102544.06;10048361;28;20047;-67
2021/03/19 12:14:48;;;;;;;5.00;1.00;;;;;;;7.54;52.28;102554.94;10049411;28;20858;-68
2021/03/19 12:19:44;;;;;;;5.53;1.20;;;;;;;7.84;52.82;102559.13;10047806;28;20051;-65
2021/03/19 12:24:40;;;;;;;4.40;1.25;;;;;;;8.04;52.50;102553.94;10041532;28;20087;-67
2021/03/19 12:29:36;;;;;;;3.75;1.17;;;;;;;7.96;52.00;102557.09;10047076;29;20047;-68
2021/03/19 12:34:33;;;;;;;4.97;0.82;;;;;;;8.21;53.63;102560.13;10059739;28;20138;-68
2021/03/19 12:39:29;;;;;;;3.95;0.73;;;;;;;8.22;52.27;102582.75;10056765;28;20114;-68
2021/03/19 12:44:25;;;;;;;3.17;0.80;;;;;;;8.18;50.18;102576.16;10056775;28;20058;-68
2021/03/19 12:49:21;;;;;;;3.40;1.00;;;;;;;8.34;52.41;102566.22;10055757;28;20047;-67
2021/03/19 12:54:18;;;;;;;6.75;1.33;;;;;;;9.45;49.75;102565.47;10061086;28;20039;-68
2021/03/19 12:59:14;;;;;;;3.97;0.73;;;;;;;9.28;47.66;102570.28;10050841;28;20054;-67
2021/03/19 13:04:10;;;;;;;3.65;0.80;;;;;;;9.20;50.11;102570.78;10049174;28;20146;-68
2021/03/19 13:09:11;;;;;;;5.00;0.98;;;;;;;8.57;51.96;102576.03;10041883;29;20150;-68
2021/03/19 13:14:07;;;;;;;2.42;0.60;;;;;;;8.19;50.67;102584.09;10049526;28;20455;-69
2021/03/19 13:19:06;;;;;;;5.75;1.17;;;;;;;7.69;52.18;102585.09;10039879;28;20079;-68
2021/03/19 13:24:03;;;;;;;4.90;1.30;;;;;;;7.29;52.54;102607.97;10055337;28;20047;-67
2021/03/19 13:28:59;;;;;;;4.25;1.30;;;;;;;7.17;51.67;102604.50;10057670;28;20069;-68
2021/03/19 13:33:55;;;;;;;7.18;1.20;;;;;;;7.17;54.87;102609.94;10041334;28;20051;-68
2021/03/19 13:38:51;;;;;;;4.55;1.20;;;;;;;6.80;55.06;102615.91;10050483;29;20095;-68
2021/03/19 13:43:47;;;;;;;4.88;1.17;;;;;;;6.66;54.54;102619.97;10051429;29;20051;-67
2021/03/19 13:48:43;;;;;;;5.43;1.40;;;;;;;6.81;58.04;102628.41;10057351;28;20043;-68
2021/03/19 13:53:43;;;;;;;3.08;0.90;;;;;;;6.88;57.23;102629.06;10034565;29;20048;-68
2021/03/19 13:58:39;;;;;;;9.80;1.10;;;;;;;6.55;52.01;102634.47;10052089;29;20079;-68
2021/03/19 14:03:35;;;;;;;4.28;1.02;;;;;;;6.88;57.34;102629.06;10059787;28;20550;-67
2021/03/19 14:08:36;;;;;;;3.13;0.98;;;;;;;7.09;50.24;102629.41;10052567;29;20048;-67
2021/03/19 14:13:32;;;;;;;3.22;0.77;;;;;;;7.55;54.41;102632.84;10054353;28;20058;-67
2021/03/19 14:18:28;;;;;;;3.80;0.95;;;;;;;7.14;52.23;102643.09;10059211;28;20039;-68
2021/03/19 14:23:27;;;;;;;5.32;1.05;;;;;;;6.74;52.62;102644.06;10068657;29;20134;-65
2021/03/19 14:28:38;;;;;;;2.65;0.70;;;;;;;7.72;56.40;102633.59;10055820;29;20465;-67
2021/03/19 14:33:46;;;;;;;2.88;0.80;;;;;;;7.85;46.92;102628.88;10058490;28;20058;-68
2021/03/19 14:38:43;;;;;;;1.85;0.50;;;;;;;7.92;53.02;102640.41;10062992;28;20419;-67
2021/03/19 14:43:39;;;;;;;2.80;1.00;;;;;;;7.51;49.54;102639.84;10064692;28;20119;-67
2021/03/19 14:48:55;;;;;;;4.60;1.10;;;;;;;7.34;44.68;102648.84;10055345;29;20054;-67
2021/03/19 14:53:53;;;;;;;3.40;0.95;;;;;;;7.51;49.82;102658.91;10053409;28;20050;-68
2021/03/19 14:58:49;;;;;;;4.38;1.45;;;;;;;7.20;51.95;102652.19;10055743;28;20455;-68
2021/03/19 15:03:49;;;;;;;4.55;1.08;;;;;;;6.68;51.17;102650.47;10048115;28;20048;-67
2021/03/19 15:08:45;;;;;;;5.38;1.10;;;;;;;7.24;44.94;102654.16;10066094;28;20039;-67
2021/03/19 15:13:41;;;;;;;4.10;1.10;;;;;;;8.06;41.94;102647.13;10064458;28;20055;-67
2021/03/19 15:18:37;;;;;;;3.33;0.80;;;;;;;8.66;51.52;102647.25;10063143;28;20500;-66
2021/03/19 15:23:36;;;;;;;5.32;1.63;;;;;;;8.23;44.16;102645.13;10063290;28;20051;-65
2021/03/19 15:28:34;;;;;;;2.95;0.75;;;;;;;8.00;54.21;102651.66;10064415;28;20111;-64
2021/03/19 15:33:30;;;;;;;3.65;1.10;;;;;;;7.24;52.72;102656.88;10058979;28;20055;-68
2021/03/19 15:38:27;;;;;;;6.43;1.40;;;;;;;6.90;47.22;102659.56;10050117;28;20526;-68
2021/03/19 15:43:25;;;;;;;4.97;1.30;;;;;;;7.42;46.07;102657.69;10051844;28;20063;-67
2021/03/19 15:48:22;;;;;;;4.90;1.25;;;;;;;7.56;51.87;102667.13;10054847;28;20097;-68
2021/03/19 15:53:19;;;;;;;7.35;2.05;;;;;;;7.04;48.83;102665.50;10060552;28;20571;-67
2021/03/19 15:58:16;;;;;;;4.60;1.13;;;;;;;6.51;48.66;102666.72;10051066;29;20456;-65
2021/03/19 16:03:13;;;;;;;5.15;1.10;;;;;;;7.38;50.04;102677.22;10042427;29;20079;-69
2021/03/19 16:08:13;;;;;;;4.10;1.30;;;;;;;7.73;45.02;102688.91;10055279;29;20074;-67
2021/03/19 16:13:10;;;;;;;5.53;1.65;;;;;;;8.57;53.22;102688.63;10054380;28;20047;-68
2021/03/19 16:18:08;;;;;;;4.45;1.20;;;;;;;8.55;48.63;102690.78;10049006;29;20047;-68
2021/03/19 16:23:06;;;;;;;3.13;0.88;;;;;;;8.64;51.53;102699.34;10047143;28;20059;-67
2021/03/19 16:28:03;;;;;;;3.20;1.00;;;;;;;8.20;48.47;102693.91;10058845;28;20050;-68
2021/03/19 16:32:59;;;;;;;3.53;0.95;;;;;;;7.80;41.59;102706.72;10048648;28;20044;-67
2021/03/19 16:37:56;;;;;;;3.28;0.82;;;;;;;7.38;42.01;102715.34;10059304;28;20049;-68
2021/03/19 16:42:57;;;;;;;4.65;0.90;;;;;;;6.46;43.23;102724.53;10058621;28;20507;-67
2021/03/19 16:47:55;;;;;;;3.83;0.88;;;;;;;6.50;55.73;102717.56;10050893;28;20460;-67
2021/03/19 16:52:54;;;;;;;5.57;1.10;;;;;;;6.11;59.09;102720.00;10057641;28;20579;-66
2021/03/19 16:57:51;;;;;;;3.72;0.80;;;;;;;5.88;58.05;102718.09;10055493;28;20071;-66
2021/03/19 17:02:47;;;;;;;6.25;1.38;;;;;;;4.91;47.42;102745.56;10058013;28;20520;-66
2021/03/19 17:07:45;;;;;;;4.07;0.98;;;;;;;4.60;45.50;102744.72;10045585;28;20094;-65
2021/03/19 17:12:41;;;;;;;6.00;1.88;;;;;;;4.66;47.18;102758.41;10058030;28;20191;-68
2021/03/19 17:17:38;;;;;;;5.93;1.48;;;;;;;4.40;45.45;102755.78;10058365;28;20130;-66
2021/03/19 17:22:35;;;;;;;5.82;1.30;;;;;;;4.15;46.20;102773.97;10049500;28;20048;-65
2021/03/19 17:27:31;;;;;;;3.50;1.10;;;;;;;4.15;46.95;102773.97;10044846;29;20043;-68
2021/03/19 17:32:27;;;;;;;5.68;1.40;;;;;;;3.99;45.19;102775.38;10055658;28;20090;-68
2021/03/19 17:37:23;;;;;;;5.85;1.23;;;;;;;3.65;46.70;102780.28;10040445;29;20123;-68
2021/03/19 17:42:19;;;;;;;6.38;1.30;;;;;;;3.71;46.25;102781.25;10057932;28;20039;-67
2021/03/19 17:47:16;;;;;;;5.50;1.23;;;;;;;3.64;46.34;102780.50;10050502;28;20434;-65
2021/03/19 17:52:12;;;;;;;4.55;1.23;;;;;;;3.39;46.45;102781.31;10063963;28;20055;-67
2021/03/19 17:57:08;;;;;;;4.30;1.30;;;;;;;3.20;46.64;102788.50;10052472;29;20039;-64
2021/03/19 18:02:04;;;;;;;4.70;1.38;;;;;;;2.93;46.59;102793.25;10071858;28;20117;-66
2021/03/19 18:07:01;;;;;;;7.13;1.50;;;;;;;3.09;46.09;102798.13;10057247;28;20102;-68
2021/03/19 18:11:57;;;;;;;8.00;1.35;;;;;;;2.91;45.62;102801.56;10068229;28;20051;-67
2021/03/19 18:16:53;;;;;;;6.78;1.30;;;;;;;2.91;46.42;102800.72;10049378;28;20500;-65
2021/03/19 18:21:50;;;;;;;5.28;1.15;;;;;;;2.79;46.42;102802.44;10063237;28;20051;-67
2021/03/19 18:26:47;;;;;;;3.53;1.10;;;;;;;2.44;45.76;102810.88;10061429;28;20043;-68
2021/03/19 18:31:44;;;;;;;4.18;1.50;;;;;;;2.44;46.02;102816.28;10061010;28;20043;-67
2021/03/19 18:36:44;;;;;;;5.47;1.20;;;;;;;2.24;46.34;102821.72;10055696;28;20052;-66
2021/03/19 18:41:40;;;;;;;6.00;1.25;;;;;;;2.24;45.59;102827.94;10056583;28;20044;-67
2021/03/19 18:46:36;;;;;;;4.97;1.52;;;;;;;2.06;45.72;102820.47;10045394;28;20588;-66
2021/03/19 18:51:33;;;;;;;5.22;1.58;;;;;;;2.06;45.67;102827.75;10058746;28;20050;-68
2021/03/19 18:56:29;;;;;;;4.88;1.55;;;;;;;2.05;46.33;102826.09;10059902;29;20051;-67
2021/03/19 19:01:25;;;;;;;4.55;1.65;;;;;;;2.00;47.66;102831.31;10064435;28;20047;-68
2021/03/19 19:06:22;;;;;;;5.22;1.63;;;;;;;1.83;47.72;102826.31;10061036;28;20054;-68
2021/03/19 19:11:21;;;;;;;5.20;1.55;;;;;;;1.68;47.90;102839.16;10054107;28;20426;-68
2021/03/19 19:16:18;;;;;;;5.03;1.30;;;;;;;1.60;48.10;102842.06;10050768;28;20102;-67
2021/03/19 19:21:15;;;;;;;11.10;1.98;;;;;;;1.58;48.52;102833.34;10051222;29;20079;-66
2021/03/19 19:26:11;;;;;;;6.35;1.67;;;;;;;1.56;48.27;102846.22;10060840;28;20595;-68
2021/03/19 19:31:08;;;;;;;6.78;1.65;;;;;;;1.41;48.97;102849.06;10060413;28;20047;-67
2021/03/19 19:36:06;;;;;;;7.75;1.92;;;;;;;1.25;49.06;102850.28;10047269;29;20048;-68
2021/03/19 19:41:09;;;;;;;5.93;2.08;;;;;;;1.13;49.97;102846.53;10063387;28;20463;-68
2021/03/19 19:46:07;;;;;;;5.57;2.20;;;;;;;1.06;50.18;102846.50;10052528;28;20503;-68
2021/03/19 19:51:05;;;;;;;5.88;2.20;;;;;;;1.00;49.75;102837.38;10061210;28;20051;-68
2021/03/19 19:56:03;;;;;;;6.80;2.15;;;;;;;0.91;50.09;102838.56;10062167;28;20747;-67
2021/03/19 20:01:02;;;;;;;8.85;2.50;;;;;;;0.96;49.73;102852.25;10055157;28;20047;-67
2021/03/19 20:05:59;;;;;;;5.78;2.55;;;;;;;0.83;50.41;102860.28;10051911;29;20047;-65
2021/03/19 20:10:56;;;;;;;6.90;2.78;;;;;;;0.85;51.22;102860.91;10046852;28;20059;-66
2021/03/19 20:15:52;;;;;;;8.98;3.45;;;;;;;0.46;51.08;102875.81;10056889;28;20058;-69
2021/03/19 20:20:49;;;;;;;5.47;2.40;;;;;;;0.67;51.06;102869.50;10062004;28;20054;-67
2021/03/19 20:25:45;;;;;;;8.43;3.10;;;;;;;0.71;50.85;102875.34;10057109;28;20099;-68
2021/03/19 20:30:41;;;;;;;7.60;2.60;;;;;;;0.66;52.27;102883.19;10052563;28;20043;-66
2021/03/19 20:35:37;;;;;;;7.15;2.03;;;;;;;0.49;51.39;102890.72;10050324;28;20051;-66
2021/03/19 20:40:33;;;;;;;7.68;2.28;;;;;;;0.47;51.19;102884.72;10050309;28;21631;-66
2021/03/19 20:45:30;;;;;;;14.63;2.35;;;;;;;0.45;51.15;102901.06;10045981;28;20082;-66
2021/03/19 20:50:29;;;;;;;4.70;1.48;;;;;;;0.41;51.95;102897.09;10047972;28;20055;-66
2021/03/19 20:55:29;;;;;;;5.55;2.00;;;;;;;0.30;53.43;102903.88;10049535;28;20054;-65
2021/03/19 21:00:37;;;;;;;5.22;1.80;;;;;;;0.20;52.53;102901.50;10044670;28;20083;-67
2021/03/19 21:05:33;;;;;;;7.03;2.60;;;;;;;0.18;52.28;102900.84;10051556;28;20056;-65
2021/03/19 21:10:30;;;;;;;5.13;2.00;;;;;;;0.11;53.83;102912.59;10044471;28;20055;-67
2021/03/19 21:15:28;;;;;;;7.25;2.22;;;;;;;0.03;54.38;102908.19;10043879;29;20483;-66
2021/03/19 21:20:24;;;;;;;5.38;2.15;;;;;;;0.05;53.96;102924.13;10050449;28;20561;-63
2021/03/19 21:25:20;;;;;;;8.27;2.67;;;;;;;-0.05;55.05;102921.75;10048645;28;20186;-66
2021/03/19 21:30:17;;;;;;;9.05;3.05;;;;;;;-0.07;54.91;102931.88;10051439;28;20042;-67
2021/03/19 21:35:15;;;;;;;8.48;2.95;;;;;;;-0.10;55.08;102932.28;10048006;28;20083;-66
2021/03/19 21:40:12;;;;;;;10.95;3.22;;;;;;;-0.27;55.25;102940.59;10057240;28;20558;-67
2021/03/19 21:45:10;;;;;;;7.35;2.70;;;;;;;-0.27;55.89;102945.97;10055876;29;20047;-66
2021/03/19 21:50:10;;;;;;;10.27;3.20;;;;;;;-0.36;56.56;102944.41;10052799;28;20055;-66
2021/03/19 21:55:07;;;;;;;10.85;2.90;;;;;;;-0.46;56.88;102951.97;10054176;28;20086;-67
2021/03/19 22:00:08;;;;;;;7.72;3.25;;;;;;;-0.42;57.12;102953.22;10048901;29;20723;-67
2021/03/19 22:05:05;;;;;;;8.98;3.28;;;;;;;-0.47;55.85;102943.03;10043508;28;20060;-67
2021/03/19 22:10:05;;;;;;;10.45;4.40;;;;;;;-0.53;56.94;102951.06;10043934;29;20043;-67
2021/03/19 22:15:04;;;;;;;11.40;4.30;;;;;;;-0.58;57.00;102945.41;10045797;28;20050;-69
2021/03/19 22:20:00;;;;;;;9.40;4.32;;;;;;;-0.61;57.82;102951.16;10049037;29;20844;-68
2021/03/19 22:24:56;;;;;;;13.20;4.55;;;;;;;-0.61;58.05;102945.78;10050347;29;20050;-67
2021/03/19 22:29:53;;;;;;;12.77;4.63;;;;;;;-0.65;58.16;102932.72;10050514;28;20051;-66
2021/03/19 22:34:49;;;;;;;12.23;4.90;;;;;;;-0.74;58.69;102941.06;10053389;28;20047;-67
2021/03/19 22:40:04;;;;;;;10.02;4.30;;;;;;;-0.80;58.34;102942.66;10026718;29;20040;-66
2021/03/19 22:45:00;;;;;;;11.65;4.93;;;;;;;-0.87;59.70;102931.00;10065837;28;20078;-66
2021/03/19 22:49:56;;;;;;;9.38;3.92;;;;;;;-0.88;60.00;102940.91;10066192;29;20047;-67
2021/03/19 22:54:53;;;;;;;9.52;4.35;;;;;;;-0.93;59.99;102950.53;10059243;28;20044;-66
2021/03/19 22:59:50;;;;;;;11.63;4.55;;;;;;;-0.97;59.54;102951.94;10056305;29;20044;-67
2021/03/19 23:04:46;;;;;;;8.55;4.22;;;;;;;-0.99;60.86;102953.97;10066877;28;20091;-66
2021/03/19 23:09:42;;;;;;;11.15;4.70;;;;;;;-0.99;60.64;102965.56;10060314;28;20497;-67